Time;durP1;ratioP1;P1;durP2;ratioP2;P2;SDS_P1;SDS_P2;PMS_P1;PMS_P2;Temp;Humidity;BMP_temperature;BMP_pressure;BME280_temperature;BME280_humidity;BME280_pressure;Samples;Min_cycle;Max_cycle;Signal;HPM_P1;HPM_P2
2023/03/11 00:00:44;;;;;;;5.25;0.80;;;;;;;;;;8242599;28;20042;-75
2023/03/11 00:04:45;;;;;;;2.22;0.57;;;;;;;;;;8243525;28;20508;-75
2023/03/11 00:08:45;;;;;;;2.75;0.80;;;;;;;;;;8261378;28;20021;-75
2023/03/11 00:12:46;;;;;;;5.80;1.10;;;;;;;;;;8250849;28;20022;-75
2023/03/11 00:16:46;;;;;;;4.30;0.90;;;;;;;;;;8251223;28;20030;-75
2023/03/11 00:20:46;;;;;;;2.85;0.80;;;;;;;;;;8250509;28;20033;-76
2023/03/11 00:24:46;;;;;;;3.40;0.95;;;;;;;;;;8251615;28;20109;-75
2023/03/11 00:28:48;;;;;;;1.67;0.73;;;;;;;;;;8251760;28;20123;-75
2023/03/11 00:32:52;;;;;;;3.85;1.00;;;;;;;;;;8264724;28;20046;-75
2023/03/11 00:36:52;;;;;;;1.05;0.82;;;;;;;;;;8256208;28;20037;-76
2023/03/11 00:40:52;;;;;;;5.20;1.67;;;;;;;;;;8250881;28;20065;-75
2023/03/11 00:44:53;;;;;;;3.25;0.82;;;;;;;;;;8248027;28;20042;-75
2023/03/11 00:48:53;;;;;;;1.70;0.80;;;;;;;;;;8246655;28;20038;-75
2023/03/11 00:52:53;;;;;;;3.50;0.80;;;;;;;;;;8247691;28;20596;-75
2023/03/11 00:56:53;;;;;;;6.33;1.00;;;;;;;;;;8250850;28;20034;-75
2023/03/11 01:00:53;;;;;;;2.70;0.70;;;;;;;;;;8244915;28;20355;-77
2023/03/11 01:04:56;;;;;;;4.50;1.15;;;;;;;;;;8243121;28;20756;-75
2023/03/11 01:08:56;;;;;;;3.80;1.10;;;;;;;;;;8243213;28;20032;-74
2023/03/11 01:12:57;;;;;;;2.15;0.80;;;;;;;;;;8244014;28;20644;-75
2023/03/11 01:16:57;;;;;;;3.95;0.98;;;;;;;;;;8240882;28;20040;-75
2023/03/11 01:20:57;;;;;;;5.68;1.00;;;;;;;;;;8243663;28;20017;-76
2023/03/11 01:24:57;;;;;;;6.63;0.95;;;;;;;;;;8257340;28;20061;-76
2023/03/11 01:28:57;;;;;;;4.40;0.95;;;;;;;;;;8242144;28;20017;-75
2023/03/11 01:32:57;;;;;;;2.45;1.10;;;;;;;;;;8241521;28;20693;-75
2023/03/11 01:36:58;;;;;;;4.18;1.00;;;;;;;;;;8243007;28;20026;-75
2023/03/11 01:40:58;;;;;;;13.18;1.35;;;;;;;;;;8242505;28;20022;-75
2023/03/11 01:44:58;;;;;;;3.72;0.90;;;;;;;;;;8242498;28;20026;-76
2023/03/11 01:48:59;;;;;;;5.30;1.15;;;;;;;;;;8242863;28;20742;-75
2023/03/11 01:52:59;;;;;;;7.07;0.98;;;;;;;;;;8241185;28;20026;-75
2023/03/11 01:57:00;;;;;;;3.22;0.90;;;;;;;;;;8244272;28;20033;-76
2023/03/11 02:01:01;;;;;;;4.43;0.90;;;;;;;;;;8241738;28;20141;-76
2023/03/11 02:05:02;;;;;;;2.92;0.95;;;;;;;;;;8242342;28;20030;-76
2023/03/11 02:09:02;;;;;;;3.60;1.17;;;;;;;;;;8250396;28;20103;-76
2023/03/11 02:13:03;;;;;;;5.57;1.30;;;;;;;;;;8242569;28;20144;-75
2023/03/11 02:17:03;;;;;;;3.67;1.10;;;;;;;;;;8243824;28;20096;-75
2023/03/11 02:21:06;;;;;;;3.47;1.42;;;;;;;;;;8243325;28;20100;-75
2023/03/11 02:25:15;;;;;;;3.80;1.15;;;;;;;;;;8241796;28;20029;-75
2023/03/11 02:29:16;;;;;;;4.97;0.98;;;;;;;;;;8246378;28;20054;-76
2023/03/11 02:33:17;;;;;;;3.22;1.13;;;;;;;;;;8241705;28;20049;-75
2023/03/11 02:37:17;;;;;;;6.60;1.10;;;;;;;;;;8246229;28;20066;-76
2023/03/11 02:41:17;;;;;;;3.78;1.17;;;;;;;;;;8240659;28;20771;-76
2023/03/11 02:45:19;;;;;;;5.07;1.63;;;;;;;;;;8256826;28;20047;-75
2023/03/11 02:49:20;;;;;;;10.18;1.77;;;;;;;;;;8238849;28;20046;-75
2023/03/11 02:53:20;;;;;;;5.40;1.02;;;;;;;;;;8253956;28;20030;-76
2023/03/11 02:57:20;;;;;;;2.90;0.80;;;;;;;;;;8239425;28;20208;-75
2023/03/11 03:01:20;;;;;;;7.30;1.35;;;;;;;;;;8237256;28;20050;-75
2023/03/11 03:05:21;;;;;;;6.22;1.17;;;;;;;;;;8240746;28;20121;-76
2023/03/11 03:09:21;;;;;;;6.53;1.08;;;;;;;;;;8240677;28;20030;-76
2023/03/11 03:13:21;;;;;;;5.65;1.20;;;;;;;;;;8239777;28;20675;-76
2023/03/11 03:17:21;;;;;;;4.53;1.05;;;;;;;;;;8240472;28;20042;-75
2023/03/11 03:21:21;;;;;;;3.65;1.17;;;;;;;;;;8238835;28;20049;-76
2023/03/11 03:25:22;;;;;;;5.57;1.10;;;;;;;;;;8239901;28;20028;-75
2023/03/11 03:29:22;;;;;;;3.30;1.13;;;;;;;;;;8238441;28;20037;-76
2023/03/11 03:33:22;;;;;;;3.40;0.80;;;;;;;;;;8238167;28;20096;-76
2023/03/11 03:37:22;;;;;;;7.10;1.55;;;;;;;;;;8245576;28;20022;-76
2023/03/11 03:41:23;;;;;;;4.93;1.00;;;;;;;;;;8238081;28;20753;-76
2023/03/11 03:45:23;;;;;;;7.50;1.65;;;;;;;;;;8254012;28;20738;-76
2023/03/11 03:49:23;;;;;;;9.07;1.30;;;;;;;;;;8238553;28;20026;-76
2023/03/11 03:53:23;;;;;;;3.92;1.20;;;;;;;;;;8238345;28;20041;-76
2023/03/11 03:57:23;;;;;;;11.10;1.25;;;;;;;;;;8237828;28;20038;-77
2023/03/11 04:01:23;;;;;;;3.80;1.05;;;;;;;;;;8238277;28;20406;-76
2023/03/11 04:05:25;;;;;;;6.45;1.48;;;;;;;;;;8238905;28;20068;-76
2023/03/11 04:09:25;;;;;;;10.00;1.50;;;;;;;;;;8238051;28;20068;-76
2023/03/11 04:13:26;;;;;;;2.60;1.23;;;;;;;;;;8238784;28;20025;-77
2023/03/11 04:17:26;;;;;;;3.00;1.15;;;;;;;;;;8237428;28;20127;-76
2023/03/11 04:21:26;;;;;;;6.10;1.42;;;;;;;;;;8236340;28;20144;-76
2023/03/11 04:25:26;;;;;;;5.75;1.60;;;;;;;;;;8238184;28;20598;-76
2023/03/11 04:29:26;;;;;;;3.58;1.10;;;;;;;;;;8243839;28;20450;-76
2023/03/11 04:33:26;;;;;;;6.47;1.20;;;;;;;;;;8239310;28;20045;-76
2023/03/11 04:37:27;;;;;;;7.95;1.30;;;;;;;;;;8238953;28;20034;-76
2023/03/11 04:41:27;;;;;;;5.90;1.30;;;;;;;;;;8253449;28;20037;-76
2023/03/11 04:45:28;;;;;;;5.70;1.30;;;;;;;;;;8237913;28;20095;-76
2023/03/11 04:49:28;;;;;;;4.10;1.05;;;;;;;;;;8237785;28;20597;-76
2023/03/11 04:53:28;;;;;;;4.53;1.38;;;;;;;;;;8241701;28;20033;-77
2023/03/11 04:57:28;;;;;;;9.75;1.65;;;;;;;;;;8259095;28;20030;-75
2023/03/11 05:01:28;;;;;;;8.18;1.50;;;;;;;;;;8259441;28;20107;-78
2023/03/11 05:05:29;;;;;;;5.70;1.30;;;;;;;;;;8245320;28;20137;-76
2023/03/11 05:09:29;;;;;;;7.13;1.58;;;;;;;;;;8245704;28;20909;-76
2023/03/11 05:13:29;;;;;;;4.30;1.00;;;;;;;;;;8243729;28;20106;-76
2023/03/11 05:17:29;;;;;;;9.35;1.70;;;;;;;;;;8242459;28;20033;-76
2023/03/11 05:21:30;;;;;;;5.95;1.38;;;;;;;;;;8243587;28;20030;-76
2023/03/11 05:25:30;;;;;;;4.67;1.10;;;;;;;;;;8242562;28;20030;-76
2023/03/11 05:29:30;;;;;;;3.97;1.15;;;;;;;;;;8243979;28;20285;-76
2023/03/11 05:33:34;;;;;;;8.15;1.77;;;;;;;;;;8242161;28;20289;-76
2023/03/11 05:37:34;;;;;;;7.78;1.50;;;;;;;;;;8246606;28;20140;-76
2023/03/11 05:41:35;;;;;;;2.67;1.10;;;;;;;;;;8243564;28;20038;-76
2023/03/11 05:45:35;;;;;;;2.87;1.10;;;;;;;;;;8243633;28;20758;-75
2023/03/11 05:49:35;;;;;;;6.25;1.40;;;;;;;;;;8253753;28;20796;-76
2023/03/11 05:53:35;;;;;;;3.67;1.17;;;;;;;;;;8243163;28;20026;-76
2023/03/11 05:57:35;;;;;;;6.45;1.20;;;;;;;;;;8241073;28;20136;-76
2023/03/11 06:01:35;;;;;;;5.97;1.30;;;;;;;;;;8243074;28;20121;-75
2023/03/11 06:05:36;;;;;;;6.22;1.42;;;;;;;;;;8240519;28;20026;-75
2023/03/11 06:09:36;;;;;;;4.55;1.27;;;;;;;;;;8241480;28;20088;-78
2023/03/11 06:13:36;;;;;;;3.50;1.08;;;;;;;;;;8242608;28;20022;-78
2023/03/11 06:17:36;;;;;;;5.60;1.40;;;;;;;;;;8242058;28;20034;-78
2023/03/11 06:21:37;;;;;;;4.25;1.30;;;;;;;;;;8245154;28;20034;-78
2023/03/11 06:25:37;;;;;;;5.00;1.38;;;;;;;;;;8242916;28;20426;-78
2023/03/11 06:29:37;;;;;;;1.92;1.02;;;;;;;;;;8243208;28;20088;-77
2023/03/11 06:33:37;;;;;;;2.80;0.98;;;;;;;;;;8241449;28;20145;-78
2023/03/11 06:37:38;;;;;;;4.10;1.10;;;;;;;;;;8240458;28;20021;-77
2023/03/11 06:41:38;;;;;;;7.43;1.30;;;;;;;;;;8241919;28;20006;-77
2023/03/11 06:45:38;;;;;;;4.75;1.20;;;;;;;;;;8243319;28;20041;-78
2023/03/11 06:49:40;;;;;;;4.95;1.67;;;;;;;;;;8243012;28;20124;-77
2023/03/11 06:53:40;;;;;;;4.72;1.55;;;;;;;;;;8241311;28;20030;-78
2023/03/11 06:57:40;;;;;;;4.00;1.10;;;;;;;;;;8242230;28;20380;-78
2023/03/11 07:01:41;;;;;;;4.10;1.30;;;;;;;;;;8244661;28;20035;-77
2023/03/11 07:05:41;;;;;;;7.60;1.50;;;;;;;;;;8242497;28;20052;-78
2023/03/11 07:09:41;;;;;;;5.78;1.50;;;;;;;;;;8239773;28;20053;-78
2023/03/11 07:13:42;;;;;;;4.25;1.42;;;;;;;;;;8242329;28;20022;-78
2023/03/11 07:17:42;;;;;;;4.25;1.50;;;;;;;;;;8239867;28;20038;-78
2023/03/11 07:21:42;;;;;;;4.25;1.65;;;;;;;;;;8241458;28;20521;-78
2023/03/11 07:25:46;;;;;;;5.03;1.40;;;;;;;;;;8241287;28;20018;-78
2023/03/11 07:29:46;;;;;;;3.15;1.70;;;;;;;;;;8239702;28;21030;-78
2023/03/11 07:33:46;;;;;;;4.63;1.75;;;;;;;;;;8241342;28;20111;-79
2023/03/11 07:37:46;;;;;;;5.57;1.30;;;;;;;;;;8241624;28;20057;-78
2023/03/11 07:41:46;;;;;;;6.43;2.00;;;;;;;;;;8240783;28;20026;-78
2023/03/11 07:45:47;;;;;;;4.25;1.50;;;;;;;;;;8241160;28;20025;-78
2023/03/11 07:49:47;;;;;;;4.15;1.45;;;;;;;;;;8237792;28;20048;-79
2023/03/11 07:53:48;;;;;;;7.18;1.75;;;;;;;;;;8242401;28;20019;-78
2023/03/11 07:57:50;;;;;;;5.22;1.52;;;;;;;;;;8245091;28;20144;-78
2023/03/11 08:01:50;;;;;;;4.07;1.40;;;;;;;;;;8239496;28;20121;-78
2023/03/11 08:05:50;;;;;;;4.65;1.40;;;;;;;;;;8239622;28;20060;-78
2023/03/11 08:09:51;;;;;;;7.78;1.50;;;;;;;;;;8240708;28;20022;-78
2023/03/11 08:13:52;;;;;;;4.50;1.50;;;;;;;;;;8255143;28;21195;-78
2023/03/11 08:17:53;;;;;;;9.02;1.55;;;;;;;;;;8238119;28;20038;-78
2023/03/11 08:21:53;;;;;;;5.28;1.33;;;;;;;;;;8241757;28;20021;-79
2023/03/11 08:25:53;;;;;;;3.03;1.23;;;;;;;;;;8239037;28;20586;-78
2023/03/11 08:29:53;;;;;;;3.27;1.30;;;;;;;;;;8245390;28;20096;-78
2023/03/11 08:33:56;;;;;;;5.22;1.33;;;;;;;;;;8243839;28;20070;-79
2023/03/11 08:37:57;;;;;;;3.78;1.50;;;;;;;;;;8243268;28;20029;-78
2023/03/11 08:41:58;;;;;;;7.63;1.95;;;;;;;;;;8243478;28;20022;-78
2023/03/11 08:45:59;;;;;;;4.57;1.25;;;;;;;;;;8244193;28;20037;-78
2023/03/11 08:49:59;;;;;;;3.53;1.38;;;;;;;;;;8249678;28;20018;-79
2023/03/11 08:54:00;;;;;;;5.25;1.58;;;;;;;;;;8244542;28;20492;-78
2023/03/11 08:58:00;;;;;;;3.30;1.05;;;;;;;;;;8244581;28;21951;-78
2023/03/11 09:02:00;;;;;;;4.60;1.30;;;;;;;;;;8243670;28;20038;-78
2023/03/11 09:06:05;;;;;;;4.93;1.20;;;;;;;;;;8245779;28;20980;-78
2023/03/11 09:10:06;;;;;;;2.67;0.95;;;;;;;;;;8244031;28;20397;-78
2023/03/11 09:14:06;;;;;;;4.72;1.30;;;;;;;;;;8247709;28;20976;-77
2023/03/11 09:18:10;;;;;;;5.35;1.30;;;;;;;;;;8244284;28;20153;-77
2023/03/11 09:22:10;;;;;;;3.38;1.00;;;;;;;;;;8244907;28;20069;-78
2023/03/11 09:26:11;;;;;;;4.97;1.00;;;;;;;;;;8258427;28;20035;-78
2023/03/11 09:30:11;;;;;;;3.95;1.05;;;;;;;;;;8245618;28;20033;-78
2023/03/11 09:34:12;;;;;;;6.75;1.00;;;;;;;;;;8244432;28;20633;-77
2023/03/11 09:38:12;;;;;;;2.50;0.80;;;;;;;;;;8257667;28;20046;-78
2023/03/11 09:42:31;;;;;;;1.67;0.73;;;;;;;;;;8242537;28;20029;-77
2023/03/11 09:46:50;;;;;;;3.00;0.98;;;;;;;;;;8258154;28;20045;-78
2023/03/11 09:50:57;;;;;;;4.43;1.08;;;;;;;;;;8245388;28;20100;-78
2023/03/11 09:54:58;;;;;;;3.58;1.08;;;;;;;;;;8241158;28;20479;-78
2023/03/11 09:59:00;;;;;;;1.80;0.85;;;;;;;;;;8242419;28;20030;-77
2023/03/11 10:03:01;;;;;;;5.82;0.90;;;;;;;;;;8241896;28;20514;-78
2023/03/11 10:07:01;;;;;;;3.80;1.13;;;;;;;;;;8243890;28;20034;-78
2023/03/11 10:11:15;;;;;;;5.30;1.20;;;;;;;;;;8239073;28;20417;-78
2023/03/11 10:15:15;;;;;;;4.60;2.30;;;;;;;;;;8249084;28;20044;-77
2023/03/11 10:19:15;;;;;;;2.45;1.10;;;;;;;;;;8238648;28;20033;-78
2023/03/11 10:23:27;;;;;;;3.33;1.00;;;;;;;;;;8242928;28;20502;-77
2023/03/11 10:27:30;;;;;;;2.78;0.93;;;;;;;;;;8241006;28;20579;-78
2023/03/11 10:31:34;;;;;;;5.63;1.20;;;;;;;;;;8240032;28;20036;-78
2023/03/11 10:35:41;;;;;;;3.97;1.00;;;;;;;;;;8240620;28;20025;-78
2023/03/11 10:39:41;;;;;;;2.00;0.98;;;;;;;;;;8243577;28;20037;-77
2023/03/11 10:43:49;;;;;;;4.57;1.00;;;;;;;;;;8253789;28;20768;-78
2023/03/11 10:47:49;;;;;;;3.85;0.90;;;;;;;;;;8239905;28;20193;-78
2023/03/11 10:51:51;;;;;;;3.22;1.13;;;;;;;;;;8242744;28;20017;-78
2023/03/11 10:55:53;;;;;;;3.83;0.85;;;;;;;;;;8256730;28;20084;-78
2023/03/11 10:59:57;;;;;;;2.45;0.88;;;;;;;;;;8241675;28;20838;-78
2023/03/11 11:03:59;;;;;;;2.63;1.00;;;;;;;;;;8241099;28;20030;-78
2023/03/11 11:08:05;;;;;;;3.28;1.20;;;;;;;;;;8240605;28;20029;-78
2023/03/11 11:12:12;;;;;;;3.17;0.90;;;;;;;;;;8239494;28;20143;-78
2023/03/11 11:16:15;;;;;;;3.58;1.27;;;;;;;;;;8245841;28;20147;-78
2023/03/11 11:20:16;;;;;;;7.93;1.10;;;;;;;;;;8253283;28;20038;-78
2023/03/11 11:24:17;;;;;;;5.65;1.30;;;;;;;;;;8245449;28;20558;-78
2023/03/11 11:28:18;;;;;;;2.33;0.80;;;;;;;;;;8239959;28;20026;-78
2023/03/11 11:32:23;;;;;;;3.05;0.98;;;;;;;;;;8236419;28;20149;-78
2023/03/11 11:36:27;;;;;;;3.25;0.98;;;;;;;;;;8241283;28;20041;-78
2023/03/11 11:40:29;;;;;;;4.20;0.90;;;;;;;;;;8243558;28;20040;-78
2023/03/11 11:44:33;;;;;;;5.38;1.15;;;;;;;;;;8239026;28;20017;-77
2023/03/11 11:48:40;;;;;;;2.75;1.00;;;;;;;;;;8239383;28;20050;-78
2023/03/11 11:52:43;;;;;;;4.70;1.00;;;;;;;;;;8243023;28;20022;-78
2023/03/11 11:56:44;;;;;;;4.65;1.02;;;;;;;;;;8239413;28;20607;-78
2023/03/11 12:00:44;;;;;;;4.07;1.10;;;;;;;;;;8239299;28;20038;-78
2023/03/11 12:04:44;;;;;;;3.85;1.10;;;;;;;;;;8248676;28;20047;-79
2023/03/11 12:08:44;;;;;;;3.08;1.00;;;;;;;;;;8249467;28;20136;-78
2023/03/11 12:12:53;;;;;;;1.25;0.95;;;;;;;;;;8265276;28;20266;-78
2023/03/11 12:16:57;;;;;;;1.75;0.80;;;;;;;;;;8249893;28;20038;-78
2023/03/11 12:20:57;;;;;;;2.88;1.00;;;;;;;;;;8247732;28;20026;-79
2023/03/11 12:25:04;;;;;;;5.18;2.67;;;;;;;;;;8247900;28;20026;-78
2023/03/11 12:29:16;;;;;;;2.13;1.00;;;;;;;;;;8246345;28;20092;-78
2023/03/11 12:33:34;;;;;;;4.50;0.90;;;;;;;;;;8264259;28;20073;-79
2023/03/11 12:37:34;;;;;;;1.85;0.95;;;;;;;;;;8246855;28;20770;-78
2023/03/11 12:41:41;;;;;;;2.92;0.80;;;;;;;;;;8248149;28;20062;-79
2023/03/11 12:45:51;;;;;;;3.58;1.08;;;;;;;;;;8249887;28;20758;-78
2023/03/11 12:49:53;;;;;;;4.22;0.88;;;;;;;;;;8248795;28;20033;-78
2023/03/11 12:53:55;;;;;;;4.93;1.20;;;;;;;;;;8248869;28;20081;-78
2023/03/11 12:58:04;;;;;;;1.73;0.80;;;;;;;;;;8250184;28;20025;-78
2023/03/11 13:02:13;;;;;;;3.72;0.98;;;;;;;;;;8248480;28;20277;-77
2023/03/11 13:06:29;;;;;;;4.50;1.10;;;;;;;;;;8248766;28;20030;-77
2023/03/11 13:10:37;;;;;;;2.45;0.90;;;;;;;;;;8248559;28;20038;-77
2023/03/11 13:14:38;;;;;;;3.08;1.10;;;;;;;;;;8243713;28;20061;-78
2023/03/11 13:18:38;;;;;;;3.50;1.10;;;;;;;;;;8241934;28;20030;-77
2023/03/11 13:22:41;;;;;;;2.72;0.90;;;;;;;;;;8243654;28;20037;-77
2023/03/11 13:26:45;;;;;;;4.88;1.25;;;;;;;;;;8242179;28;20032;-78
2023/03/11 13:30:45;;;;;;;;;;;;;;;;;;8248057;28;20029;-79
2023/03/11 13:34:54;;;;;;;4.32;1.65;;;;;;;;;;8241118;28;20666;-78
2023/03/11 13:39:04;;;;;;;1.92;1.10;;;;;;;;;;8240055;28;20873;-78
2023/03/11 13:43:09;;;;;;;2.30;0.90;;;;;;;;;;8247352;28;20030;-77
2023/03/11 13:47:12;;;;;;;2.65;1.27;;;;;;;;;;8241379;28;20120;-77
2023/03/11 13:51:15;;;;;;;5.43;1.65;;;;;;;;;;8242081;28;20025;-76
2023/03/11 13:55:18;;;;;;;4.93;1.05;;;;;;;;;;8241037;28;20030;-77
2023/03/11 13:59:22;;;;;;;3.85;1.20;;;;;;;;;;8242339;28;20018;-77
2023/03/11 14:03:24;;;;;;;2.53;0.90;;;;;;;;;;8238053;28;20764;-77
2023/03/11 14:07:26;;;;;;;2.53;1.13;;;;;;;;;;8254179;28;20022;-78
2023/03/11 14:11:30;;;;;;;3.10;1.08;;;;;;;;;;8246262;28;20497;-78
2023/03/11 14:15:31;;;;;;;2.10;0.90;;;;;;;;;;8241028;28;20161;-77
2023/03/11 14:19:31;;;;;;;3.53;1.00;;;;;;;;;;8247767;28;20037;-77
2023/03/11 14:23:39;;;;;;;1.27;0.80;;;;;;;;;;8257721;28;20022;-77
2023/03/11 14:27:44;;;;;;;2.03;0.90;;;;;;;;;;8242511;28;21480;-77
2023/03/11 14:31:44;;;;;;;2.15;0.82;;;;;;;;;;8252917;28;20074;-77
2023/03/11 14:35:52;;;;;;;3.63;0.88;;;;;;;;;;8248287;28;20033;-77
2023/03/11 14:39:52;;;;;;;3.08;0.98;;;;;;;;;;8250757;28;20022;-77
2023/03/11 14:43:53;;;;;;;3.50;1.20;;;;;;;;;;8237805;28;20037;-77
2023/03/11 14:48:03;;;;;;;1.92;0.80;;;;;;;;;;8242971;28;20292;-77
2023/03/11 14:52:07;;;;;;;3.45;1.10;;;;;;;;;;8241749;28;20038;-77
2023/03/11 14:56:11;;;;;;;4.78;1.20;;;;;;;;;;8242449;28;20707;-77
2023/03/11 15:00:14;;;;;;;3.50;0.98;;;;;;;;;;8240009;28;20033;-77
2023/03/11 15:04:22;;;;;;;5.65;1.27;;;;;;;;;;8237222;28;21057;-78
2023/03/11 15:08:25;;;;;;;2.47;1.10;;;;;;;;;;8258640;28;20034;-78
2023/03/11 15:12:33;;;;;;;3.67;1.10;;;;;;;;;;8237624;28;20722;-77
2023/03/11 15:16:36;;;;;;;2.00;0.95;;;;;;;;;;8236028;28;20084;-77
2023/03/11 15:20:36;;;;;;;4.60;1.30;;;;;;;;;;8241859;28;20418;-77
2023/03/11 15:24:37;;;;;;;3.13;1.20;;;;;;;;;;8234866;28;20030;-76
2023/03/11 15:28:37;;;;;;;2.00;1.08;;;;;;;;;;8238936;28;20080;-76
2023/03/11 15:32:39;;;;;;;4.72;1.30;;;;;;;;;;8237646;28;20037;-77
2023/03/11 15:36:43;;;;;;;5.00;1.10;;;;;;;;;;8240904;28;20033;-77
2023/03/11 15:40:53;;;;;;;7.00;1.25;;;;;;;;;;8239498;28;20030;-77
2023/03/11 15:44:53;;;;;;;2.10;0.80;;;;;;;;;;8235703;28;20017;-77
2023/03/11 15:48:54;;;;;;;2.38;1.30;;;;;;;;;;8234527;28;20042;-77
2023/03/11 15:52:55;;;;;;;1.63;0.73;;;;;;;;;;8243315;28;20061;-77
2023/03/11 15:56:57;;;;;;;2.80;1.25;;;;;;;;;;8237315;28;20572;-77
2023/03/11 16:00:57;;;;;;;3.63;1.20;;;;;;;;;;8238000;28;20694;-77
2023/03/11 16:04:58;;;;;;;2.63;0.80;;;;;;;;;;8221608;28;20212;-77
2023/03/11 16:08:58;;;;;;;1.55;0.80;;;;;;;;;;8236238;28;20544;-76
2023/03/11 16:12:58;;;;;;;3.50;1.00;;;;;;;;;;8238872;28;20026;-79
2023/03/11 16:16:58;;;;;;;1.92;0.90;;;;;;;;;;8235865;28;20040;-75
2023/03/11 16:20:58;;;;;;;2.40;0.90;;;;;;;;;;8236061;28;20032;-74
2023/03/11 16:25:01;;;;;;;3.55;0.93;;;;;;;;;;8235241;28;20048;-76
2023/03/11 16:29:01;;;;;;;2.38;0.93;;;;;;;;;;8234366;28;20031;-76
2023/03/11 16:33:01;;;;;;;2.65;0.80;;;;;;;;;;8235576;28;20133;-75
2023/03/11 16:37:01;;;;;;;3.08;1.10;;;;;;;;;;8232064;28;20068;-75
2023/03/11 16:41:02;;;;;;;3.90;1.00;;;;;;;;;;8227658;28;20664;-76
2023/03/11 16:45:02;;;;;;;2.28;0.85;;;;;;;;;;8238814;28;21310;-76
2023/03/11 16:49:02;;;;;;;4.65;1.10;;;;;;;;;;8238788;28;20512;-77
2023/03/11 16:53:03;;;;;;;2.05;1.08;;;;;;;;;;8243343;28;20028;-77
2023/03/11 16:57:04;;;;;;;3.58;0.90;;;;;;;;;;8244919;28;20030;-77
2023/03/11 17:01:04;;;;;;;1.40;1.00;;;;;;;;;;8241086;28;20850;-77
2023/03/11 17:05:05;;;;;;;1.90;0.90;;;;;;;;;;8247224;28;20042;-79
2023/03/11 17:09:05;;;;;;;1.42;0.80;;;;;;;;;;8239838;28;20864;-78
2023/03/11 17:13:06;;;;;;;2.05;0.80;;;;;;;;;;8247170;28;20030;-79
2023/03/11 17:17:08;;;;;;;4.95;1.00;;;;;;;;;;8244201;28;20142;-79
2023/03/11 17:21:10;;;;;;;2.03;1.10;;;;;;;;;;8248317;28;20032;-78
2023/03/11 17:25:11;;;;;;;1.48;0.90;;;;;;;;;;8241937;28;20026;-79
2023/03/11 17:29:11;;;;;;;2.15;0.93;;;;;;;;;;8243010;28;20026;-79
2023/03/11 17:33:11;;;;;;;2.25;1.20;;;;;;;;;;8241924;28;20108;-80
2023/03/11 17:37:13;;;;;;;2.05;1.17;;;;;;;;;;8241963;28;20044;-79
2023/03/11 17:41:14;;;;;;;8.27;2.00;;;;;;;;;;8242729;28;20037;-79
2023/03/11 17:45:14;;;;;;;6.85;3.38;;;;;;;;;;8243329;28;20868;-79
2023/03/11 17:49:15;;;;;;;6.10;2.90;;;;;;;;;;8241553;28;20033;-79
2023/03/11 17:53:15;;;;;;;9.65;4.25;;;;;;;;;;8244486;28;20026;-79
2023/03/11 17:57:15;;;;;;;32.17;9.77;;;;;;;;;;8255984;28;20116;-79
2023/03/11 18:01:17;;;;;;;20.75;7.60;;;;;;;;;;8240517;28;20293;-79
2023/03/11 18:05:17;;;;;;;23.15;7.85;;;;;;;;;;8242962;28;20029;-79
2023/03/11 18:09:18;;;;;;;17.80;6.72;;;;;;;;;;8242062;28;20021;-78
2023/03/11 18:13:18;;;;;;;12.95;5.65;;;;;;;;;;8243386;28;20026;-75
2023/03/11 18:17:19;;;;;;;15.95;5.47;;;;;;;;;;8239892;28;20053;-76
2023/03/11 18:21:21;;;;;;;11.02;4.30;;;;;;;;;;8241590;28;20037;-75
2023/03/11 18:25:21;;;;;;;10.45;4.72;;;;;;;;;;8241354;28;20038;-76
2023/03/11 18:29:21;;;;;;;6.93;3.63;;;;;;;;;;8241666;28;20834;-76
2023/03/11 18:33:22;;;;;;;6.68;3.40;;;;;;;;;;8237437;28;20037;-75
2023/03/11 18:37:23;;;;;;;8.07;3.67;;;;;;;;;;8239538;28;20504;-76
2023/03/11 18:41:24;;;;;;;4.45;2.40;;;;;;;;;;8238290;28;20022;-76
2023/03/11 18:45:24;;;;;;;3.38;2.20;;;;;;;;;;8238957;28;20121;-76
2023/03/11 18:49:25;;;;;;;5.55;2.58;;;;;;;;;;8240134;28;20077;-76
2023/03/11 18:53:25;;;;;;;7.43;1.98;;;;;;;;;;8241184;28;20034;-76
2023/03/11 18:57:25;;;;;;;4.90;2.10;;;;;;;;;;8239299;28;20111;-75
2023/03/11 19:01:26;;;;;;;5.05;1.95;;;;;;;;;;8236864;28;20391;-76
2023/03/11 19:05:26;;;;;;;5.55;2.28;;;;;;;;;;8239046;28;20061;-76
2023/03/11 19:09:26;;;;;;;4.53;1.85;;;;;;;;;;8253807;28;20545;-76
2023/03/11 19:13:26;;;;;;;6.47;2.00;;;;;;;;;;8237823;28;20101;-76
2023/03/11 19:17:27;;;;;;;6.18;2.33;;;;;;;;;;8237948;28;20077;-76
2023/03/11 19:21:27;;;;;;;6.68;3.03;;;;;;;;;;8243785;28;20030;-76
2023/03/11 19:25:27;;;;;;;8.77;5.78;;;;;;;;;;8240962;28;20032;-76
2023/03/11 19:29:27;;;;;;;9.05;5.43;;;;;;;;;;8240776;28;20455;-76
2023/03/11 19:33:27;;;;;;;7.32;5.05;;;;;;;;;;8235850;28;20136;-76
2023/03/11 19:37:29;;;;;;;9.75;7.10;;;;;;;;;;8238544;28;20148;-76
2023/03/11 19:41:29;;;;;;;11.20;5.72;;;;;;;;;;8238748;28;20033;-76
2023/03/11 19:45:29;;;;;;;14.50;5.50;;;;;;;;;;8250829;28;20030;-76
2023/03/11 19:49:30;;;;;;;6.75;3.92;;;;;;;;;;8238231;28;20293;-76
2023/03/11 19:53:30;;;;;;;11.38;4.45;;;;;;;;;;8239952;28;20025;-76
2023/03/11 19:57:30;;;;;;;5.47;2.38;;;;;;;;;;8237411;28;20030;-76
2023/03/11 20:01:31;;;;;;;3.70;1.75;;;;;;;;;;8239746;28;20038;-76
2023/03/11 20:05:33;;;;;;;1.70;1.60;;;;;;;;;;8239046;28;20033;-76
2023/03/11 20:09:34;;;;;;;3.20;1.85;;;;;;;;;;8236871;28;20026;-76
2023/03/11 20:13:35;;;;;;;3.00;1.60;;;;;;;;;;8239353;28;20030;-76
2023/03/11 20:17:35;;;;;;;3.42;1.75;;;;;;;;;;8241345;28;20049;-76
2023/03/11 20:21:39;;;;;;;1.83;1.30;;;;;;;;;;8238161;28;20030;-76
2023/03/11 20:25:39;;;;;;;3.20;2.00;;;;;;;;;;8243784;28;20075;-76
2023/03/11 20:29:40;;;;;;;5.93;2.85;;;;;;;;;;8242978;28;20065;-76
2023/03/11 20:33:40;;;;;;;3.97;2.45;;;;;;;;;;8243806;28;20026;-76
2023/03/11 20:37:40;;;;;;;2.63;1.80;;;;;;;;;;8245750;28;20022;-76
2023/03/11 20:41:41;;;;;;;8.30;2.35;;;;;;;;;;8245940;28;20081;-76
2023/03/11 20:45:41;;;;;;;1.65;1.30;;;;;;;;;;8243218;28;20030;-76
2023/03/11 20:49:41;;;;;;;2.00;1.33;;;;;;;;;;8239376;28;20687;-76
2023/03/11 20:53:42;;;;;;;2.30;1.40;;;;;;;;;;8241595;28;20033;-76
2023/03/11 20:57:42;;;;;;;5.88;2.55;;;;;;;;;;8259255;28;20940;-76
2023/03/11 21:01:43;;;;;;;3.83;1.65;;;;;;;;;;8259905;28;20101;-76
2023/03/11 21:05:44;;;;;;;2.17;1.40;;;;;;;;;;8242002;28;20141;-76
2023/03/11 21:09:44;;;;;;;3.47;2.10;;;;;;;;;;8242400;28;20307;-76
2023/03/11 21:13:44;;;;;;;3.30;1.80;;;;;;;;;;8249279;28;20981;-76
2023/03/11 21:17:45;;;;;;;3.30;1.50;;;;;;;;;;8256963;28;20305;-76
2023/03/11 21:21:45;;;;;;;4.88;1.50;;;;;;;;;;8245405;28;20277;-76
2023/03/11 21:25:45;;;;;;;3.83;1.50;;;;;;;;;;8240446;28;20014;-77
2023/03/11 21:29:45;;;;;;;3.58;1.42;;;;;;;;;;8241848;28;20372;-76
2023/03/11 21:33:46;;;;;;;5.13;1.50;;;;;;;;;;8242893;28;20038;-76
2023/03/11 21:37:46;;;;;;;2.47;1.35;;;;;;;;;;8242217;28;20022;-76
2023/03/11 21:41:47;;;;;;;3.25;1.30;;;;;;;;;;8240458;28;20022;-76
2023/03/11 21:45:47;;;;;;;2.53;1.17;;;;;;;;;;8242618;28;20042;-76
2023/03/11 21:49:47;;;;;;;8.10;1.50;;;;;;;;;;8241560;28;20281;-76
2023/03/11 21:53:47;;;;;;;5.10;1.48;;;;;;;;;;8248335;28;20032;-75
2023/03/11 21:57:48;;;;;;;3.13;1.40;;;;;;;;;;8246207;28;20038;-76
2023/03/11 22:01:48;;;;;;;6.60;1.65;;;;;;;;;;8241837;28;20046;-76
2023/03/11 22:05:53;;;;;;;12.57;4.68;;;;;;;;;;8245935;28;20025;-76
2023/03/11 22:09:53;;;;;;;22.45;7.95;;;;;;;;;;8241483;28;20025;-76
2023/03/11 22:13:56;;;;;;;23.50;8.98;;;;;;;;;;8238595;28;20115;-76
2023/03/11 22:17:56;;;;;;;19.48;7.25;;;;;;;;;;8245267;28;20037;-76
2023/03/11 22:21:56;;;;;;;15.68;5.05;;;;;;;;;;8241294;28;20461;-76
2023/03/11 22:25:56;;;;;;;8.70;3.83;;;;;;;;;;8254630;28;20081;-76
2023/03/11 22:29:57;;;;;;;21.73;8.93;;;;;;;;;;8243159;28;20386;-76
2023/03/11 22:33:57;;;;;;;15.27;7.40;;;;;;;;;;8245627;28;20400;-76
2023/03/11 22:37:57;;;;;;;9.88;4.38;;;;;;;;;;8247003;28;20030;-76
2023/03/11 22:41:57;;;;;;;4.45;2.20;;;;;;;;;;8248039;28;21235;-76
2023/03/11 22:45:58;;;;;;;3.95;1.92;;;;;;;;;;8242548;28;20038;-76
2023/03/11 22:49:58;;;;;;;4.85;2.00;;;;;;;;;;8243073;28;20025;-75
2023/03/11 22:53:58;;;;;;;4.23;2.20;;;;;;;;;;8246699;28;20594;-76
2023/03/11 22:57:58;;;;;;;5.53;2.58;;;;;;;;;;8243757;28;21095;-76
2023/03/11 23:01:59;;;;;;;3.97;2.60;;;;;;;;;;8242519;28;20101;-76
2023/03/11 23:05:59;;;;;;;6.18;2.35;;;;;;;;;;8241132;28;20305;-76
2023/03/11 23:10:00;;;;;;;4.45;1.73;;;;;;;;;;8242200;28;20100;-76
2023/03/11 23:14:00;;;;;;;3.10;1.80;;;;;;;;;;8243261;28;20105;-76
2023/03/11 23:18:00;;;;;;;4.32;1.90;;;;;;;;;;8239572;28;20056;-76
2023/03/11 23:22:00;;;;;;;3.27;1.60;;;;;;;;;;8242604;28;20025;-76
2023/03/11 23:26:05;;;;;;;4.53;1.45;;;;;;;;;;8255496;28;20372;-76
2023/03/11 23:30:06;;;;;;;4.00;1.30;;;;;;;;;;8244926;28;20049;-77
2023/03/11 23:34:07;;;;;;;2.45;1.00;;;;;;;;;;8238488;28;20034;-76
2023/03/11 23:38:07;;;;;;;2.20;1.25;;;;;;;;;;8239766;28;20648;-76
2023/03/11 23:42:07;;;;;;;3.17;1.20;;;;;;;;;;8238577;28;20454;-76
2023/03/11 23:46:09;;;;;;;3.22;1.55;;;;;;;;;;8240481;28;20034;-75
2023/03/11 23:50:09;;;;;;;1.73;0.90;;;;;;;;;;8238499;28;20120;-76
2023/03/11 23:54:09;;;;;;;3.88;1.00;;;;;;;;;;8241253;28;20093;-76
2023/03/11 23:58:09;;;;;;;1.13;0.80;;;;;;;;;;8239305;28;20447;-77
